createdAt,value
2022-08-27T00:00:56.873Z,101713.63
2022-08-27T00:03:24.891Z,101716.81
2022-08-27T00:05:52.906Z,101714.03
2022-08-27T00:08:20.946Z,101713.41
2022-08-27T00:10:48.908Z,101706.78
2022-08-27T00:13:18.254Z,101709.34
2022-08-27T00:15:46.271Z,101711.69
2022-08-27T00:18:14.448Z,101704.66
2022-08-27T00:20:43.924Z,101698.69
2022-08-27T00:23:12.038Z,101705.47
2022-08-27T00:25:40.565Z,101702.31
2022-08-27T00:28:08.685Z,101701.47
2022-08-27T00:30:40.032Z,101693.16
2022-08-27T00:33:08.205Z,101702.50
2022-08-27T00:35:36.870Z,101687.16
2022-08-27T00:38:05.447Z,101696.53
2022-08-27T00:40:34.195Z,101689.94
2022-08-27T00:43:03.682Z,101684.81
2022-08-27T00:45:38.277Z,101690.38
2022-08-27T00:48:10.926Z,101688.84
2022-08-27T00:50:43.734Z,101691.84
2022-08-27T00:53:16.688Z,101686.28
2022-08-27T00:56:03.257Z,101686.25
2022-08-27T00:58:37.680Z,101692.53
2022-08-27T01:01:10.978Z,101697.84
2022-08-27T01:03:42.879Z,101692.72
2022-08-27T01:06:16.065Z,101697.59
2022-08-27T01:08:52.281Z,101700.59
2022-08-27T01:11:24.608Z,101691.69
2022-08-27T01:14:00.949Z,101700.63
2022-08-27T01:16:37.181Z,101701.53
2022-08-27T01:19:13.081Z,101702.78
2022-08-27T01:21:52.913Z,101697.72
2022-08-27T01:24:35.737Z,101699.44
2022-08-27T01:27:13.318Z,101701.69
2022-08-27T01:29:45.037Z,101698.34
2022-08-27T01:32:17.576Z,101696.44
2022-08-27T01:34:47.025Z,101695.41
2022-08-27T01:37:17.400Z,101699.63
2022-08-27T01:39:55.823Z,101692.41
2022-08-27T01:42:31.401Z,101693.47
2022-08-27T01:45:05.782Z,101693.03
2022-08-27T01:47:36.093Z,101705.16
2022-08-27T01:50:06.364Z,101696.41
2022-08-27T01:52:34.370Z,101701.53
2022-08-27T01:55:05.659Z,101693.63
2022-08-27T01:57:35.388Z,101705.28
2022-08-27T02:00:04.769Z,101702.75
2022-08-27T02:02:40.569Z,101696.78
2022-08-27T02:05:09.931Z,101700.44
2022-08-27T02:07:38.034Z,101701.69
2022-08-27T02:10:09.903Z,101688.50
2022-08-27T02:12:38.005Z,101699.31
2022-08-27T02:15:07.113Z,101686.94
2022-08-27T02:17:35.665Z,101692.00
2022-08-27T02:20:04.773Z,101687.53
2022-08-27T02:22:33.142Z,101691.13
2022-08-27T02:25:01.364Z,101687.13
2022-08-27T02:27:31.195Z,101685.22
2022-08-27T02:29:59.700Z,101681.38
2022-08-27T02:32:31.842Z,101686.72
2022-08-27T02:35:01.447Z,101689.06
2022-08-27T02:37:30.272Z,101685.25
2022-08-27T02:39:59.342Z,101690.34
2022-08-27T02:42:28.225Z,101684.59
2022-08-27T02:45:00.258Z,101689.06
2022-08-27T02:47:31.098Z,101688.66
2022-08-27T02:50:01.863Z,101685.03
2022-08-27T02:52:31.691Z,101683.97
2022-08-27T02:55:02.627Z,101692.47
2022-08-27T02:57:36.701Z,101695.47
2022-08-27T03:00:12.856Z,101688.22
2022-08-27T03:02:43.075Z,101689.69
2022-08-27T03:05:16.203Z,101687.31
2022-08-27T03:07:46.627Z,101686.47
2022-08-27T03:10:18.681Z,101674.56
2022-08-27T03:12:47.712Z,101685.00
2022-08-27T03:15:20.899Z,101683.94
2022-08-27T03:20:41.574Z,101686.88
2022-08-27T03:23:11.838Z,101686.28
2022-08-27T03:25:45.961Z,101689.69
2022-08-27T03:28:20.596Z,101689.47
2022-08-27T03:30:59.098Z,101689.09
2022-08-27T03:33:29.704Z,101687.19
2022-08-27T03:35:59.413Z,101685.72
2022-08-27T03:38:30.887Z,101687.22
2022-08-27T03:41:00.528Z,101684.00
2022-08-27T03:43:29.594Z,101686.53
2022-08-27T03:46:01.632Z,101687.19
2022-08-27T03:48:32.150Z,101683.56
2022-08-27T03:51:06.666Z,101683.56
2022-08-27T03:53:35.422Z,101682.53
2022-08-27T03:56:06.286Z,101688.25
2022-08-27T03:58:34.877Z,101686.34
2022-08-27T04:01:05.128Z,101687.59
2022-08-27T04:03:34.070Z,101682.28
2022-08-27T04:06:03.545Z,101674.84
2022-08-27T04:08:33.286Z,101673.38
2022-08-27T04:11:01.354Z,101672.06
2022-08-27T04:13:30.446Z,101671.19
2022-08-27T04:16:01.158Z,101677.59
2022-08-27T04:18:30.975Z,101685.25
2022-08-27T04:21:00.830Z,101672.22
2022-08-27T04:23:30.241Z,101668.84
2022-08-27T04:25:58.484Z,101673.94
2022-08-27T04:28:28.607Z,101676.94
2022-08-27T04:30:57.120Z,101669.03
2022-08-27T04:33:25.189Z,101672.19
2022-08-27T04:36:00.644Z,101673.28
2022-08-27T04:38:29.078Z,101670.25
2022-08-27T04:41:14.770Z,101665.38
2022-08-27T04:43:43.372Z,101669.41
2022-08-27T04:46:12.780Z,101674.53
2022-08-27T04:48:41.151Z,101680.72
2022-08-27T04:51:11.495Z,101676.69
2022-08-27T04:53:44.188Z,101678.59
2022-08-27T04:56:16.302Z,101673.94
2022-08-27T04:58:46.304Z,101683.09
2022-08-27T05:01:21.466Z,101682.06
2022-08-27T05:03:52.511Z,101686.72
2022-08-27T05:06:25.228Z,101688.84
2022-08-27T05:08:54.801Z,101692.88
2022-08-27T05:11:29.006Z,101684.19
2022-08-27T05:14:00.312Z,101678.66
2022-08-27T05:16:30.668Z,101682.94
2022-08-27T05:19:01.490Z,101686.13
2022-08-27T05:21:35.408Z,101680.19
2022-08-27T05:24:08.958Z,101679.78
2022-08-27T05:26:40.838Z,101674.88
2022-08-27T05:29:09.660Z,101675.31
2022-08-27T05:31:39.684Z,101681.47
2022-08-27T05:34:16.453Z,101677.22
2022-08-27T05:36:53.856Z,101681.97
2022-08-27T05:39:22.107Z,101688.16
2022-08-27T05:41:53.185Z,101681.75
2022-08-27T05:47:11.298Z,101683.50
2022-08-27T05:49:40.624Z,101684.56
2022-08-27T05:52:14.471Z,101684.56
2022-08-27T05:54:44.269Z,101692.28
2022-08-27T05:57:14.876Z,101689.22
2022-08-27T06:00:02.241Z,101694.56
2022-08-27T06:02:43.242Z,101686.72
2022-08-27T06:05:14.433Z,101685.63
2022-08-27T06:07:45.832Z,101690.97
2022-08-27T06:10:16.460Z,101692.69
2022-08-27T06:12:47.828Z,101693.91
2022-08-27T06:15:18.999Z,101700.28
2022-08-27T06:17:48.559Z,101696.91
2022-08-27T06:20:19.070Z,101696.91
2022-08-27T06:22:51.615Z,101700.13
2022-08-27T06:25:21.797Z,101693.50
2022-08-27T06:27:51.587Z,101700.56
2022-08-27T06:30:21.681Z,101701.59
2022-08-27T06:32:54.498Z,101702.47
2022-08-27T06:35:25.510Z,101703.53
2022-08-27T06:37:58.506Z,101707.78
2022-08-27T06:40:27.935Z,101705.88
2022-08-27T06:42:56.894Z,101712.50
2022-08-27T06:45:28.721Z,101709.31
2022-08-27T06:47:59.722Z,101709.53
2022-08-27T06:50:30.650Z,101705.72
2022-08-27T06:53:01.908Z,101715.94
2022-08-27T06:55:35.356Z,101713.81
2022-08-27T06:58:07.704Z,101721.47
2022-08-27T07:00:37.597Z,101713.19
2022-08-27T07:03:09.057Z,101715.53
2022-08-27T07:05:41.583Z,101710.22
2022-08-27T07:08:12.267Z,101710.41
2022-08-27T07:10:41.454Z,101722.34
2022-08-27T07:13:12.035Z,101722.56
2022-08-27T07:15:42.511Z,101728.94
2022-08-27T07:18:12.133Z,101728.13
2022-08-27T07:20:42.713Z,101727.25
2022-08-27T07:23:12.694Z,101738.97
2022-08-27T07:25:43.278Z,101738.34
2022-08-27T07:28:12.938Z,101736.66
2022-08-27T07:30:42.271Z,101741.34
2022-08-27T07:33:12.243Z,101741.78
2022-08-27T07:35:42.332Z,101736.69
2022-08-27T07:38:13.032Z,101733.72
2022-08-27T07:40:42.548Z,101749.25
2022-08-27T07:43:28.490Z,101755.41
2022-08-27T07:45:58.413Z,101744.13
2022-08-27T07:48:28.006Z,101757.94
2022-08-27T07:50:56.499Z,101754.94
2022-08-27T07:53:26.360Z,101754.94
2022-08-27T07:55:56.309Z,101755.59
2022-08-27T07:58:25.930Z,101757.50
2022-08-27T08:00:59.413Z,101755.41
2022-08-27T08:03:29.291Z,101752.81
2022-08-27T08:05:59.738Z,101758.19
2022-08-27T08:08:32.247Z,101768.63
2022-08-27T08:11:02.868Z,101760.13
2022-08-27T08:13:33.777Z,101762.88
2022-08-27T08:16:06.377Z,101762.25
2022-08-27T08:18:36.884Z,101763.09
2022-08-27T08:21:07.724Z,101757.16
2022-08-27T08:23:41.405Z,101760.56
2022-08-27T08:26:14.226Z,101758.84
2022-08-27T08:28:45.133Z,101760.56
2022-08-27T08:31:16.698Z,101774.59
2022-08-27T08:33:48.948Z,101776.31
2022-08-27T08:36:21.073Z,101766.53
2022-08-27T08:38:51.262Z,101773.53
2022-08-27T08:41:41.198Z,101777.16
2022-08-27T08:44:23.221Z,101771.63
2022-08-27T08:47:02.279Z,101770.34
2022-08-27T08:49:41.557Z,101764.59
2022-08-27T08:52:30.931Z,101772.06
2022-08-27T08:55:15.876Z,101769.50
2022-08-27T08:57:51.424Z,101773.78
2022-08-27T09:00:22.062Z,101785.06
2022-08-27T09:02:57.061Z,101782.28
2022-08-27T09:05:28.490Z,101787.63
2022-08-27T09:08:32.894Z,101789.31
2022-08-27T09:11:11.624Z,101781.66
2022-08-27T09:13:50.591Z,101790.16
2022-08-27T09:16:22.190Z,101790.59
2022-08-27T09:18:56.779Z,101787.41
2022-08-27T09:21:38.963Z,101794.00
2022-08-27T09:24:17.594Z,101794.84
2022-08-27T09:26:49.916Z,101800.38
2022-08-27T09:29:21.730Z,101798.28
2022-08-27T09:31:57.740Z,101805.72
2022-08-27T09:34:29.327Z,101803.13
2022-08-27T09:37:03.661Z,101802.03
2022-08-27T09:39:52.904Z,101802.88
2022-08-27T09:42:40.140Z,101790.72
2022-08-27T09:45:11.840Z,101795.41
2022-08-27T09:47:46.684Z,101798.03
2022-08-27T09:50:17.993Z,101804.63
2022-08-27T09:52:52.753Z,101802.63
2022-08-27T09:55:29.879Z,101797.16
2022-08-27T09:58:00.165Z,101799.31
2022-08-27T10:00:35.911Z,101795.28
2022-08-27T10:03:04.760Z,101802.53
2022-08-27T10:05:38.792Z,101796.75
2022-08-27T10:08:20.746Z,101798.28
2022-08-27T10:10:59.632Z,101801.91
2022-08-27T10:13:38.982Z,101798.47
2022-08-27T10:16:31.290Z,101800.19
2022-08-27T10:19:13.325Z,101805.31
2022-08-27T10:21:50.948Z,101797.66
2022-08-27T10:24:32.824Z,101806.19
2022-08-27T10:27:13.586Z,101808.75
2022-08-27T10:29:55.795Z,101802.78
2022-08-27T10:32:44.809Z,101804.22
2022-08-27T10:35:19.194Z,101804.22
2022-08-27T10:37:56.359Z,101803.59
2022-08-27T10:40:32.175Z,101805.97
2022-08-27T10:43:15.685Z,101801.03
2022-08-27T10:45:53.829Z,101802.09
2022-08-27T10:48:29.492Z,101798.50
2022-08-27T10:51:04.460Z,101793.75
2022-08-27T10:53:40.590Z,101785.22
2022-08-27T10:56:17.886Z,101786.28
2022-08-27T10:59:02.473Z,101788.22
2022-08-27T11:01:43.338Z,101794.56
2022-08-27T11:04:20.812Z,101796.53
2022-08-27T11:06:58.400Z,101804.00
2022-08-27T11:09:37.842Z,101806.06
2022-08-27T11:12:14.894Z,101801.88
2022-08-27T11:14:52.886Z,101802.31
2022-08-27T11:17:44.564Z,101801.88
2022-08-27T11:20:21.005Z,101796.34
2022-08-27T11:22:56.651Z,101805.25
2022-08-27T11:25:51.217Z,101802.69
2022-08-27T11:28:30.140Z,101801.81
2022-08-27T11:31:09.236Z,101802.47
2022-08-27T11:33:47.568Z,101809.22
2022-08-27T11:36:36.862Z,101810.28
2022-08-27T11:39:17.931Z,101801.56
2022-08-27T11:42:01.346Z,101803.50
2022-08-27T11:44:30.080Z,101804.59
2022-08-27T11:47:09.402Z,101805.66
2022-08-27T11:49:47.428Z,101806.88
2022-08-27T11:52:24.927Z,101796.84
2022-08-27T11:55:10.807Z,101786.22
2022-08-27T11:57:40.270Z,101806.88
2022-08-27T12:00:21.060Z,101802.59
2022-08-27T12:02:58.646Z,101795.19
2022-08-27T12:05:38.625Z,101801.41
2022-08-27T12:08:18.829Z,101803.16
2022-08-27T12:11:06.869Z,101796.94
2022-08-27T12:13:40.528Z,101794.31
2022-08-27T12:16:23.643Z,101795.56
2022-08-27T12:19:04.779Z,101798.59
2022-08-27T12:21:51.469Z,101789.19
2022-08-27T12:24:55.720Z,101794.91
2022-08-27T12:27:35.599Z,101800.09
2022-08-27T12:30:20.067Z,101797.13
2022-08-27T12:32:53.298Z,101802.88
2022-08-27T12:35:29.166Z,101793.94
2022-08-27T12:38:12.688Z,101795.63
2022-08-27T12:40:52.096Z,101791.50
2022-08-27T12:43:25.564Z,101797.47
2022-08-27T12:45:58.268Z,101789.06
2022-08-27T12:48:30.829Z,101778.31
2022-08-27T12:51:03.490Z,101777.97
2022-08-27T12:53:54.595Z,101775.69
2022-08-27T12:56:46.526Z,101779.53
2022-08-27T12:59:38.429Z,101781.25
2022-08-27T13:02:25.003Z,101779.44
2022-08-27T13:04:55.917Z,101779.94
2022-08-27T13:07:37.893Z,101786.16
2022-08-27T13:10:14.831Z,101791.28
2022-08-27T13:12:45.439Z,101790.56
2022-08-27T13:15:18.057Z,101790.56
2022-08-27T13:17:48.452Z,101800.00
2022-08-27T13:20:21.782Z,101792.13
2022-08-27T13:22:52.368Z,101794.50
2022-08-27T13:25:27.269Z,101800.66
2022-08-27T13:28:04.226Z,101799.59
2022-08-27T13:30:36.781Z,101800.91
2022-08-27T13:33:08.338Z,101790.16
2022-08-27T13:35:43.119Z,101787.16
2022-08-27T13:38:12.632Z,101782.31
2022-08-27T13:40:58.206Z,101782.06
2022-08-27T13:43:34.847Z,101780.81
2022-08-27T13:46:16.484Z,101791.31
2022-08-27T13:48:52.223Z,101804.69
2022-08-27T13:51:30.108Z,101791.75
2022-08-27T13:54:15.322Z,101793.34
2022-08-27T13:57:04.664Z,101800.69
2022-08-27T13:59:37.007Z,101796.47
2022-08-27T14:02:23.150Z,101795.22
2022-08-27T14:04:55.265Z,101794.94
2022-08-27T14:07:33.695Z,101806.56
2022-08-27T14:10:07.700Z,101802.06
2022-08-27T14:12:41.312Z,101806.00
2022-08-27T14:15:16.762Z,101808.03
2022-08-27T14:17:47.362Z,101805.59
2022-08-27T14:20:17.891Z,101804.78
2022-08-27T14:22:50.117Z,101804.31
2022-08-27T14:25:22.344Z,101800.91
2022-08-27T14:27:57.873Z,101805.81
2022-08-27T14:30:29.544Z,101801.59
2022-08-27T14:33:01.322Z,101798.88
2022-08-27T14:35:35.440Z,101808.22
2022-08-27T14:38:13.916Z,101802.03
2022-08-27T14:40:43.855Z,101803.31
2022-08-27T14:43:14.330Z,101800.94
2022-08-27T14:45:45.896Z,101806.88
2022-08-27T14:48:19.417Z,101809.84
2022-08-27T14:50:48.021Z,101807.25
2022-08-27T14:53:16.138Z,101816.06
2022-08-27T14:55:46.876Z,101807.53
2022-08-27T14:58:21.642Z,101813.09
2022-08-27T15:00:52.155Z,101811.00
2022-08-27T15:03:20.893Z,101811.47
2022-08-27T15:05:49.095Z,101813.19
2022-08-27T15:08:18.606Z,101817.44
2022-08-27T15:10:53.476Z,101816.84
2022-08-27T15:13:25.263Z,101811.53
2022-08-27T15:15:55.123Z,101818.97
2022-08-27T15:18:26.130Z,101813.22
2022-08-27T15:20:58.056Z,101817.25
2022-08-27T15:23:29.460Z,101820.28
2022-08-27T15:26:00.495Z,101816.63
2022-08-27T15:28:31.411Z,101823.88
2022-08-27T15:31:00.006Z,101820.91
2022-08-27T15:33:29.106Z,101821.09
2022-08-27T15:36:03.876Z,101829.66
2022-08-27T15:38:33.418Z,101828.78
2022-08-27T15:41:07.033Z,101834.31
2022-08-27T15:43:40.357Z,101841.31
2022-08-27T15:46:08.866Z,101839.38
2022-08-27T15:48:40.675Z,101841.94
2022-08-27T15:51:17.034Z,101845.78
2022-08-27T15:53:49.533Z,101851.34
2022-08-27T15:56:21.889Z,101856.69
2022-08-27T15:58:52.599Z,101852.63
2022-08-27T16:01:28.272Z,101858.22
2022-08-27T16:03:58.479Z,101850.31
2022-08-27T16:06:30.755Z,101856.06
2022-08-27T16:09:03.878Z,101855.44
2022-08-27T16:11:36.210Z,101856.72
2022-08-27T16:14:12.425Z,101850.75
2022-08-27T16:16:47.184Z,101859.69
2022-08-27T16:19:20.529Z,101866.28
2022-08-27T16:21:51.155Z,101859.03
2022-08-27T16:24:23.673Z,101860.75
2022-08-27T16:26:53.726Z,101847.84
2022-08-27T16:29:26.682Z,101855.59
2022-08-27T16:32:01.422Z,101853.63
2022-08-27T16:34:33.838Z,101854.91
2022-08-27T16:37:06.320Z,101858.56
2022-08-27T16:39:40.599Z,101850.69
2022-08-27T16:42:12.497Z,101858.56
2022-08-27T16:44:43.659Z,101855.59
2022-08-27T16:47:14.719Z,101852.59
2022-08-27T16:50:01.204Z,101848.78
2022-08-27T16:52:32.470Z,101855.41
2022-08-27T16:55:03.794Z,101852.19
2022-08-27T16:57:34.761Z,101852.81
2022-08-27T17:00:07.229Z,101865.88
2022-08-27T17:02:39.642Z,101855.63
2022-08-27T17:05:33.622Z,101868.66
2022-08-27T17:08:04.516Z,101853.09
2022-08-27T17:10:37.674Z,101858.22
2022-08-27T17:13:10.338Z,101861.00
2022-08-27T17:15:41.027Z,101855.22
2022-08-27T17:18:10.439Z,101859.72
2022-08-27T17:20:42.045Z,101855.03
2022-08-27T17:23:18.308Z,101855.03
2022-08-27T17:25:50.413Z,101861.00
2022-08-27T17:28:22.610Z,101860.13
2022-08-27T17:30:56.324Z,101870.16
2022-08-27T17:33:33.906Z,101865.88
2022-08-27T17:36:03.975Z,101865.25
2022-08-27T17:38:39.741Z,101862.91
2022-08-27T17:41:15.097Z,101869.75
2022-08-27T17:43:46.619Z,101875.72
2022-08-27T17:46:17.621Z,101876.16
2022-08-27T17:48:46.083Z,101872.50
2022-08-27T17:51:14.546Z,101875.91
2022-08-27T17:53:47.972Z,101865.88
2022-08-27T17:56:15.921Z,101876.75
2022-08-27T17:58:44.455Z,101877.38
2022-08-27T18:01:14.451Z,101872.50
2022-08-27T18:03:49.672Z,101874.84
2022-08-27T18:06:22.690Z,101876.34
2022-08-27T18:08:54.182Z,101881.47
2022-08-27T18:11:25.196Z,101881.88
2022-08-27T18:14:04.542Z,101875.91
2022-08-27T18:16:37.216Z,101877.22
2022-08-27T18:19:08.860Z,101886.38
2022-08-27T18:21:39.915Z,101891.94
2022-08-27T18:24:20.242Z,101891.28
2022-08-27T18:26:53.868Z,101885.06
2022-08-27T18:29:25.591Z,101890.19
2022-08-27T18:31:58.198Z,101889.94
2022-08-27T18:34:31.002Z,101886.75
2022-08-27T18:37:02.655Z,101889.31
2022-08-27T18:39:33.151Z,101892.28
2022-08-27T18:42:04.574Z,101884.63
2022-08-27T18:44:39.328Z,101896.34
2022-08-27T18:47:08.053Z,101889.75
2022-08-27T18:49:40.218Z,101896.59
2022-08-27T18:52:12.677Z,101895.31
2022-08-27T18:54:43.725Z,101901.47
2022-08-27T18:57:13.879Z,101898.94
2022-08-27T18:59:45.774Z,101900.41
2022-08-27T19:02:21.100Z,101892.75
2022-08-27T19:04:53.963Z,101900.69
2022-08-27T19:07:31.123Z,101898.09
2022-08-27T19:10:02.164Z,101898.34
2022-08-27T19:12:33.735Z,101903.84
2022-08-27T19:15:12.503Z,101912.81
2022-08-27T19:17:47.950Z,101909.41
2022-08-27T19:20:21.380Z,101911.34
2022-08-27T19:22:53.030Z,101913.69
2022-08-27T19:25:23.210Z,101912.59
2022-08-27T19:27:54.700Z,101919.00
2022-08-27T19:30:24.477Z,101919.41
2022-08-27T19:32:57.713Z,101919.84
2022-08-27T19:35:29.980Z,101922.88
2022-08-27T19:38:01.642Z,101922.63
2022-08-27T19:40:32.417Z,101929.47
2022-08-27T19:43:05.377Z,101917.09
2022-08-27T19:45:34.322Z,101930.53
2022-08-27T19:48:02.664Z,101926.06
2022-08-27T19:50:32.253Z,101924.78
2022-08-27T19:53:00.610Z,101925.41
2022-08-27T19:55:28.726Z,101929.47
2022-08-27T19:57:56.681Z,101931.81
2022-08-27T20:00:27.683Z,101925.41
2022-08-27T20:02:59.335Z,101929.28
2022-08-27T20:05:30.134Z,101926.25
2022-08-27T20:08:04.607Z,101932.44
2022-08-27T20:10:37.244Z,101932.25
2022-08-27T20:13:08.392Z,101926.91
2022-08-27T20:15:40.652Z,101929.25
2022-08-27T20:18:11.712Z,101918.38
2022-08-27T20:20:41.929Z,101924.34
2022-08-27T20:23:13.835Z,101919.22
2022-08-27T20:25:45.093Z,101918.16
2022-08-27T20:28:38.237Z,101920.06
2022-08-27T20:31:07.302Z,101928.16
2022-08-27T20:33:37.329Z,101917.28
2022-08-27T20:36:07.969Z,101914.53
2022-08-27T20:38:40.386Z,101921.34
2022-08-27T20:41:09.203Z,101918.34
2022-08-27T20:43:40.218Z,101922.19
2022-08-27T20:46:11.172Z,101922.19
2022-08-27T20:48:41.796Z,101919.22
2022-08-27T20:51:10.721Z,101923.28
2022-08-27T20:53:42.622Z,101925.38
2022-08-27T20:56:14.985Z,101929.00
2022-08-27T20:59:03.685Z,101934.78
2022-08-27T21:01:35.094Z,101929.84
2022-08-27T21:04:08.568Z,101934.09
2022-08-27T21:06:39.799Z,101927.50
2022-08-27T21:09:12.069Z,101933.50
2022-08-27T21:11:42.395Z,101935.84
2022-08-27T21:14:12.263Z,101940.53
2022-08-27T21:16:42.371Z,101938.41
2022-08-27T21:19:13.672Z,101933.72
2022-08-27T21:21:43.631Z,101928.34
2022-08-27T21:24:16.537Z,101932.63
2022-08-27T21:26:49.314Z,101928.97
2022-08-27T21:29:20.898Z,101929.22
2022-08-27T21:31:55.245Z,101931.38
2022-08-27T21:34:28.958Z,101924.72
2022-08-27T21:37:04.517Z,101927.06
2022-08-27T21:39:40.803Z,101924.31
2022-08-27T21:42:21.752Z,101934.56
2022-08-27T21:44:50.605Z,101929.44
2022-08-27T21:47:18.669Z,101929.44
2022-08-27T21:49:49.175Z,101939.06
2022-08-27T21:52:17.947Z,101934.81
2022-08-27T21:54:47.414Z,101937.78
2022-08-27T21:57:16.754Z,101943.75
2022-08-27T21:59:49.165Z,101938.00
2022-08-27T22:05:09.422Z,101946.53
2022-08-27T22:07:37.347Z,101947.81
2022-08-27T22:10:08.640Z,101941.41
2022-08-27T22:12:37.364Z,101938.84
2022-08-27T22:15:08.265Z,101940.56
2022-08-27T22:17:37.172Z,101938.41
2022-08-27T22:20:07.583Z,101942.28
2022-08-27T22:22:38.035Z,101945.25
2022-08-27T22:25:10.405Z,101939.94
2022-08-27T22:27:40.035Z,101945.25
2022-08-27T22:30:11.791Z,101940.13
2022-08-27T22:32:42.379Z,101942.72
2022-08-27T22:35:13.826Z,101932.88
2022-08-27T22:37:47.294Z,101942.91
2022-08-27T22:40:24.183Z,101929.47
2022-08-27T22:42:56.492Z,101943.34
2022-08-27T22:45:27.381Z,101938.84
2022-08-27T22:47:57.809Z,101940.31
2022-08-27T22:50:26.568Z,101950.59
2022-08-27T22:52:55.182Z,101942.03
2022-08-27T22:55:25.325Z,101934.59
2022-08-27T22:57:55.564Z,101947.81
2022-08-27T23:00:27.266Z,101947.59
2022-08-27T23:02:55.988Z,101947.13
2022-08-27T23:05:24.868Z,101946.50
2022-08-27T23:07:54.805Z,101949.69
2022-08-27T23:10:25.323Z,101951.59
2022-08-27T23:12:54.614Z,101952.22
2022-08-27T23:15:25.509Z,101953.94
2022-08-27T23:17:54.654Z,101954.34
2022-08-27T23:20:24.120Z,101952.00
2022-08-27T23:22:52.775Z,101957.31
2022-08-27T23:25:45.475Z,101954.75
2022-08-27T23:28:15.549Z,101946.84
2022-08-27T23:30:45.103Z,101942.81
2022-08-27T23:33:14.473Z,101938.50
2022-08-27T23:35:48.042Z,101941.09
2022-08-27T23:38:17.218Z,101940.91
2022-08-27T23:40:48.221Z,101943.44
2022-08-27T23:43:17.419Z,101949.84
2022-08-27T23:45:46.102Z,101941.34
2022-08-27T23:48:14.504Z,101937.94
2022-08-27T23:50:42.756Z,101940.50
2022-08-27T23:53:12.050Z,101949.44
2022-08-27T23:55:41.035Z,101945.63
2022-08-27T23:58:11.424Z,101956.28
